createdAt,value
2023-02-12T00:02:23.761Z,-1.20
2023-02-12T00:07:21.013Z,-1.30
2023-02-12T00:12:18.264Z,-1.50
2023-02-12T00:17:15.839Z,-1.50
2023-02-12T00:22:13.435Z,-1.40
2023-02-12T00:27:10.763Z,-1.10
2023-02-12T00:32:08.002Z,-1.20
2023-02-12T00:37:05.403Z,-1.50
2023-02-12T00:42:02.613Z,-1.50
2023-02-12T00:47:02.532Z,-1.40
2023-02-12T00:52:00.163Z,-1.50
2023-02-12T00:56:58.043Z,-1.50
2023-02-12T01:01:56.489Z,-1.50
2023-02-12T01:06:54.209Z,-1.60
2023-02-12T01:11:51.627Z,-1.70
2023-02-12T01:16:49.330Z,-1.80
2023-02-12T01:21:46.611Z,-1.80
2023-02-12T01:26:43.964Z,-2.10
2023-02-12T01:31:42.653Z,-2.20
2023-02-12T01:36:40.243Z,-2.00
2023-02-12T01:41:41.049Z,-2.20
2023-02-12T01:46:39.353Z,-2.20
2023-02-12T01:51:37.145Z,-2.30
2023-02-12T01:56:35.504Z,-2.30
2023-02-12T02:01:34.097Z,-2.40
2023-02-12T02:06:54.140Z,-2.50
2023-02-12T02:12:10.265Z,-2.40
2023-02-12T02:17:28.798Z,-2.50
2023-02-12T02:22:41.282Z,-2.50
2023-02-12T02:28:08.049Z,-2.60
2023-02-12T02:33:38.973Z,-2.60
2023-02-12T02:38:46.172Z,-2.60
2023-02-12T02:43:48.419Z,-2.60
2023-02-12T02:48:57.101Z,-2.70
2023-02-12T02:54:23.415Z,-2.70
2023-02-12T02:59:29.308Z,-2.80
2023-02-12T03:04:44.288Z,-2.90
2023-02-12T03:09:47.223Z,-3.00
2023-02-12T03:14:54.477Z,-2.90
2023-02-12T03:19:58.359Z,-3.00
2023-02-12T03:25:09.778Z,-2.90
2023-02-12T03:30:14.726Z,-2.90
2023-02-12T03:35:18.549Z,-2.80
2023-02-12T03:40:23.871Z,-2.60
2023-02-12T03:45:42.510Z,-2.50
2023-02-12T03:50:59.659Z,-2.50
2023-02-12T03:56:12.033Z,-2.50
2023-02-12T04:01:09.779Z,-2.50
2023-02-12T04:06:20.862Z,-2.60
2023-02-12T04:11:30.164Z,-2.30
2023-02-12T04:16:40.728Z,-2.30
2023-02-12T04:22:14.647Z,-2.10
2023-02-12T04:27:20.719Z,-2.20
2023-02-12T04:32:41.411Z,-2.10
2023-02-12T04:37:44.662Z,-2.00
2023-02-12T04:42:44.399Z,-2.00
2023-02-12T04:47:41.963Z,-2.00
2023-02-12T04:52:39.376Z,-2.30
2023-02-12T04:57:38.494Z,-2.30
2023-02-12T05:02:37.080Z,-2.30
2023-02-12T05:07:36.918Z,-2.30
2023-02-12T05:12:34.213Z,-2.50
2023-02-12T05:17:33.003Z,-2.30
2023-02-12T05:22:31.541Z,-2.50
2023-02-12T05:27:28.984Z,-2.80
2023-02-12T05:32:26.299Z,-2.50
2023-02-12T05:37:23.484Z,-2.70
2023-02-12T05:42:20.869Z,-2.70
2023-02-12T05:47:18.179Z,-2.70
2023-02-12T05:52:15.507Z,-2.50
2023-02-12T05:57:12.727Z,-2.50
2023-02-12T06:02:10.113Z,-2.30
2023-02-12T06:07:10.237Z,-2.10
2023-02-12T06:12:07.572Z,-2.00
2023-02-12T06:17:04.881Z,-2.00
2023-02-12T06:22:02.260Z,-2.00
2023-02-12T06:26:59.847Z,-2.00
2023-02-12T06:31:57.142Z,-2.20
2023-02-12T06:36:54.905Z,-1.90
2023-02-12T06:41:52.305Z,-1.70
2023-02-12T06:46:49.684Z,-1.60
2023-02-12T06:51:47.089Z,-1.70
2023-02-12T06:56:45.014Z,-1.40
2023-02-12T07:01:42.367Z,-1.20
2023-02-12T07:06:39.828Z,-0.70
2023-02-12T07:11:38.649Z,-0.50
2023-02-12T07:16:36.251Z,-0.80
2023-02-12T07:21:33.913Z,-0.60
2023-02-12T07:26:31.266Z,-0.60
2023-02-12T07:31:28.753Z,-0.50
2023-02-12T07:36:29.688Z,-0.60
2023-02-12T07:41:30.262Z,-0.40
2023-02-12T07:46:31.255Z,-0.20
2023-02-12T07:51:28.923Z,-0.10
2023-02-12T07:56:32.729Z,0.10
2023-02-12T08:01:35.729Z,0.40
2023-02-12T08:06:35.284Z,0.60
2023-02-12T08:11:33.708Z,0.80
2023-02-12T08:16:31.878Z,1.10
2023-02-12T08:21:29.507Z,1.70
2023-02-12T08:26:32.806Z,1.60
2023-02-12T08:31:33.451Z,1.60
2023-02-12T08:36:39.380Z,1.60
2023-02-12T08:41:37.575Z,2.00
2023-02-12T08:46:37.678Z,1.90
2023-02-12T08:51:36.580Z,2.30
2023-02-12T08:56:35.920Z,2.70
2023-02-12T09:01:38.600Z,3.40
2023-02-12T09:06:36.591Z,6.10
2023-02-12T09:11:35.440Z,5.40
2023-02-12T09:16:35.861Z,4.40
2023-02-12T09:21:33.991Z,4.50
2023-02-12T09:26:31.544Z,4.60
2023-02-12T09:31:31.125Z,4.40
2023-02-12T09:36:29.060Z,3.90
2023-02-12T09:41:49.924Z,4.10
2023-02-12T09:47:00.879Z,4.10
2023-02-12T09:51:59.096Z,4.20
2023-02-12T09:57:00.499Z,4.70
2023-02-12T10:01:59.095Z,6.00
2023-02-12T10:07:19.439Z,6.50
2023-02-12T10:12:39.901Z,7.20
2023-02-12T10:17:52.236Z,9.10
2023-02-12T10:23:04.214Z,10.10
2023-02-12T10:28:08.900Z,13.30
2023-02-12T10:33:16.415Z,15.10
2023-02-12T10:38:21.864Z,16.10
2023-02-12T10:43:19.238Z,15.10
2023-02-12T10:48:20.788Z,15.10
2023-02-12T10:53:29.938Z,10.80
2023-02-12T10:58:27.257Z,8.60
2023-02-12T11:03:29.886Z,8.30
2023-02-12T11:08:34.322Z,8.10
2023-02-12T11:13:32.042Z,7.90
2023-02-12T11:18:33.189Z,7.40
2023-02-12T11:23:38.000Z,7.70
2023-02-12T11:28:37.165Z,7.40
2023-02-12T11:33:36.330Z,7.60
2023-02-12T11:38:55.251Z,7.60
2023-02-12T11:43:53.211Z,7.70
2023-02-12T11:48:53.041Z,7.60
2023-02-12T11:53:53.331Z,7.60
2023-02-12T11:58:54.070Z,7.50
2023-02-12T12:04:20.612Z,7.50
2023-02-12T12:09:25.280Z,7.40
2023-02-12T12:15:03.074Z,7.40
2023-02-12T12:20:04.499Z,7.20
2023-02-12T12:25:24.684Z,7.00
2023-02-12T12:30:44.261Z,7.00
2023-02-12T12:35:53.637Z,7.00
2023-02-12T12:41:08.758Z,7.10
2023-02-12T12:46:21.787Z,6.80
2023-02-12T12:51:23.516Z,6.80
2023-02-12T12:56:26.354Z,6.70
2023-02-12T13:01:35.504Z,6.60
2023-02-12T13:06:35.461Z,6.70
2023-02-12T13:11:54.280Z,6.70
2023-02-12T13:17:00.903Z,6.80
2023-02-12T13:22:19.881Z,6.90
2023-02-12T13:27:23.029Z,7.10
2023-02-12T13:32:46.912Z,7.30
2023-02-12T13:37:51.629Z,7.40
2023-02-12T13:42:48.944Z,7.50
2023-02-12T13:48:12.432Z,7.50
2023-02-12T13:53:21.463Z,7.50
2023-02-12T13:58:35.019Z,7.30
2023-02-12T14:03:32.726Z,7.30
2023-02-12T14:09:00.768Z,7.20
2023-02-12T14:14:05.039Z,7.10
2023-02-12T14:19:36.964Z,7.30
2023-02-12T14:24:36.894Z,7.30
2023-02-12T14:29:34.238Z,7.30
2023-02-12T14:34:31.603Z,7.40
2023-02-12T14:39:30.198Z,7.30
2023-02-12T14:44:29.172Z,7.20
2023-02-12T14:49:27.541Z,7.10
2023-02-12T14:54:36.024Z,6.90
2023-02-12T14:59:40.244Z,6.90
2023-02-12T15:04:38.894Z,6.90
2023-02-12T15:09:52.486Z,7.00
2023-02-12T15:15:08.891Z,7.10
2023-02-12T15:20:16.780Z,7.20
2023-02-12T15:25:16.971Z,7.10
2023-02-12T15:30:25.962Z,6.80
2023-02-12T15:35:26.987Z,6.40
2023-02-12T15:40:24.448Z,5.90
2023-02-12T15:45:27.560Z,5.40
2023-02-12T15:50:25.574Z,5.00
2023-02-12T15:55:33.380Z,4.60
2023-02-12T16:00:30.650Z,4.30
2023-02-12T16:05:29.171Z,4.10
2023-02-12T16:10:27.375Z,3.70
2023-02-12T16:15:31.041Z,3.50
2023-02-12T16:20:30.911Z,3.20
2023-02-12T16:25:31.985Z,3.00
2023-02-12T16:30:38.920Z,2.80
2023-02-12T16:35:36.377Z,2.60
2023-02-12T16:40:35.910Z,2.40
2023-02-12T16:45:43.258Z,2.30
2023-02-12T16:50:53.390Z,2.10
2023-02-12T16:55:51.344Z,2.00
2023-02-12T17:00:52.155Z,1.80
2023-02-12T17:05:55.596Z,1.70
2023-02-12T17:10:56.096Z,1.70
2023-02-12T17:15:57.501Z,1.60
2023-02-12T17:20:58.161Z,1.50
2023-02-12T17:25:58.895Z,1.40
2023-02-12T17:31:07.297Z,1.20
2023-02-12T17:36:11.339Z,1.00
2023-02-12T17:41:22.685Z,1.00
2023-02-12T17:46:27.752Z,1.10
2023-02-12T17:51:34.195Z,1.10
2023-02-12T17:56:34.112Z,0.90
2023-02-12T18:01:37.258Z,0.80
2023-02-12T18:06:34.693Z,0.70
2023-02-12T18:11:33.171Z,0.50
2023-02-12T18:16:35.118Z,0.60
2023-02-12T18:21:45.377Z,0.60
2023-02-12T18:27:10.952Z,0.50
2023-02-12T18:32:22.142Z,0.40
2023-02-12T18:37:33.113Z,0.50
2023-02-12T18:42:33.511Z,0.50
2023-02-12T18:47:30.893Z,0.40
2023-02-12T18:52:28.492Z,0.40
2023-02-12T18:57:26.530Z,0.20
2023-02-12T19:02:39.230Z,0.20
2023-02-12T19:07:52.405Z,0.10
2023-02-12T19:13:03.152Z,0.10
2023-02-12T19:18:19.140Z,0.10
2023-02-12T19:23:17.727Z,0.00
2023-02-12T19:28:28.126Z,0.00
2023-02-12T19:33:39.434Z,0.10
2023-02-12T19:38:57.842Z,0.10
2023-02-12T19:44:01.208Z,0.10
2023-02-12T19:49:03.153Z,0.20
2023-02-12T19:54:01.947Z,0.00
2023-02-12T19:59:02.460Z,-0.10
2023-02-12T20:04:00.381Z,-0.40
2023-02-12T20:09:01.952Z,-0.50
2023-02-12T20:14:09.587Z,-0.60
2023-02-12T20:19:10.685Z,-0.50
2023-02-12T20:24:08.365Z,-0.60
2023-02-12T20:29:09.729Z,-0.50
2023-02-12T20:34:16.954Z,-0.50
2023-02-12T20:39:19.284Z,-0.50
2023-02-12T20:44:21.477Z,-0.40
2023-02-12T20:49:19.778Z,-0.50
2023-02-12T20:54:17.050Z,-0.50
2023-02-12T20:59:14.615Z,-0.50
2023-02-12T21:04:15.490Z,-0.60
2023-02-12T21:09:14.168Z,-0.60
2023-02-12T21:14:21.852Z,-0.80
2023-02-12T21:19:20.437Z,-0.90
2023-02-12T21:24:52.409Z,-1.00
2023-02-12T21:30:12.696Z,-1.10
2023-02-12T21:35:55.077Z,-1.20
2023-02-12T21:41:52.630Z,-1.20
2023-02-12T21:47:33.758Z,-1.10
2023-02-12T21:59:39.313Z,-1.20
2023-02-12T22:05:22.332Z,-1.30
2023-02-12T22:10:56.319Z,-1.40
2023-02-12T22:16:34.781Z,-1.30
2023-02-12T22:22:38.225Z,-1.30
2023-02-12T22:28:21.212Z,-1.20
2023-02-12T22:34:03.795Z,-1.30
2023-02-12T22:39:52.698Z,-1.20
2023-02-12T22:45:48.355Z,-1.30
2023-02-12T22:51:30.406Z,-1.30
2023-02-12T22:57:20.478Z,-1.30
2023-02-12T23:03:06.560Z,-1.40
2023-02-12T23:08:28.117Z,-1.60
2023-02-12T23:13:55.310Z,-1.30
2023-02-12T23:19:01.292Z,-1.30
2023-02-12T23:24:02.077Z,-1.50
2023-02-12T23:29:05.744Z,-1.50
2023-02-12T23:34:09.053Z,-1.70
2023-02-12T23:39:10.815Z,-1.80
2023-02-12T23:44:20.419Z,-1.70
2023-02-12T23:49:29.502Z,-1.80
2023-02-12T23:54:27.211Z,-1.80
2023-02-12T23:59:39.735Z,-1.70
